createdAt,value
2022-10-02T00:06:22.738Z,15.5
2022-10-02T00:12:05.312Z,15.7
2022-10-02T00:17:43.677Z,15.8
2022-10-02T00:23:20.527Z,15.7
2022-10-02T00:28:42.400Z,15.6
2022-10-02T00:39:42.295Z,15.6
2022-10-02T00:45:18.612Z,15.6
2022-10-02T00:50:55.827Z,15.6
2022-10-02T00:56:16.554Z,15.5
2022-10-02T01:01:53.639Z,15.5
2022-10-02T01:07:31.040Z,15.5
2022-10-02T01:12:37.117Z,15.4
2022-10-02T01:18:14.218Z,15.4
2022-10-02T01:23:51.974Z,15.3
2022-10-02T01:29:14.070Z,15.1
2022-10-02T01:34:50.582Z,15.1
2022-10-02T01:40:27.732Z,15
2022-10-02T01:45:48.884Z,14.8
2022-10-02T01:51:26.977Z,14.8
2022-10-02T01:57:04.724Z,14.6
2022-10-02T02:02:42.590Z,14.4
2022-10-02T02:08:20.796Z,14.3
2022-10-02T02:13:42.568Z,14.3
2022-10-02T02:19:20.127Z,14.4
2022-10-02T02:24:41.526Z,14.4
2022-10-02T02:30:04.916Z,14.4
2022-10-02T02:35:41.363Z,14.1
2022-10-02T02:41:17.581Z,14.1
2022-10-02T02:46:58.637Z,14.1
2022-10-02T02:52:35.640Z,14.1
2022-10-02T02:58:18.975Z,14.1
2022-10-02T03:03:57.438Z,14.1
2022-10-02T03:09:34.558Z,14
2022-10-02T03:15:11.295Z,14.1
2022-10-02T03:20:49.674Z,14.3
2022-10-02T03:26:26.721Z,14.3
2022-10-02T03:32:32.882Z,14.3
2022-10-02T03:38:10.553Z,14.3
2022-10-02T03:44:16.541Z,14.3
2022-10-02T03:50:18.625Z,14.3
2022-10-02T03:55:42.900Z,14.4
2022-10-02T04:01:03.368Z,14.3
2022-10-02T04:06:25.989Z,14.5
2022-10-02T04:11:37.350Z,14.3
2022-10-02T04:16:43.343Z,14.4
2022-10-02T04:21:49.338Z,14.3
2022-10-02T04:26:56.433Z,14.3
2022-10-02T04:32:02.854Z,14.3
2022-10-02T04:36:53.652Z,14.4
2022-10-02T04:42:21.159Z,14.6
2022-10-02T04:47:58.579Z,14.4
2022-10-02T04:53:34.888Z,14.6
2022-10-02T04:59:12.564Z,14.6
2022-10-02T05:04:36.979Z,14.6
2022-10-02T05:10:18.768Z,14.5
2022-10-02T05:15:56.131Z,14.5
2022-10-02T05:21:18.499Z,14.5
2022-10-02T05:26:59.893Z,14.4
2022-10-02T05:32:05.622Z,14.4
2022-10-02T05:37:16.273Z,14.5
2022-10-02T05:42:07.064Z,14.5
2022-10-02T05:47:16.970Z,14.3
2022-10-02T05:52:23.191Z,14.3
2022-10-02T05:57:46.265Z,14.3
2022-10-02T06:03:12.303Z,14.3
2022-10-02T06:08:18.743Z,14.5
2022-10-02T06:13:25.438Z,15
2022-10-02T06:19:06.485Z,15.2
2022-10-02T06:24:32.923Z,15.3
2022-10-02T06:30:15.371Z,15.4
2022-10-02T06:35:22.383Z,15.6
2022-10-02T06:41:00.249Z,16.1
2022-10-02T06:46:06.124Z,16.2
2022-10-02T06:51:12.992Z,16.4
2022-10-02T06:56:23.131Z,16.5
2022-10-02T07:01:29.792Z,16.3
2022-10-02T07:06:52.720Z,16.9
2022-10-02T07:12:14.867Z,16.8
2022-10-02T07:17:55.395Z,17.6
2022-10-02T07:23:40.908Z,16.6
2022-10-02T07:29:08.159Z,16.6
2022-10-02T07:34:36.773Z,16.9
2022-10-02T07:40:15.059Z,17.1
2022-10-02T07:45:53.149Z,17.3
2022-10-02T07:51:36.821Z,17.2
2022-10-02T07:57:14.442Z,17.4
2022-10-02T08:02:52.166Z,17.4
2022-10-02T08:08:35.886Z,18.1
2022-10-02T08:14:13.271Z,17.9
2022-10-02T08:20:17.771Z,17.6
2022-10-02T08:25:39.122Z,17.8
2022-10-02T08:31:22.873Z,18.1
2022-10-02T08:37:05.420Z,18
2022-10-02T08:42:26.687Z,17.8
2022-10-02T08:48:05.071Z,18
2022-10-02T08:53:42.650Z,18.1
2022-10-02T08:59:07.653Z,18.4
2022-10-02T09:14:37.653Z,19.3
2022-10-02T09:20:04.808Z,18.9
2022-10-02T09:25:28.376Z,18.6
2022-10-02T09:30:35.530Z,18.6
2022-10-02T09:36:12.771Z,19.1
2022-10-02T09:41:49.891Z,19.1
2022-10-02T09:47:27.730Z,18.9
2022-10-02T09:53:05.515Z,19.5
2022-10-02T09:58:42.942Z,19.1
2022-10-02T10:04:33.774Z,19.4
2022-10-02T10:10:27.655Z,19.3
2022-10-02T10:16:05.956Z,19.4
2022-10-02T10:21:46.679Z,19.9
2022-10-02T10:27:24.908Z,20.3
2022-10-02T10:33:02.913Z,20.6
2022-10-02T10:38:29.355Z,20.9
2022-10-02T10:44:13.544Z,20
2022-10-02T10:49:56.132Z,19.6
2022-10-02T10:51:23.951Z,19.9
2022-10-02T10:57:04.997Z,20.2
2022-10-02T11:02:32.564Z,20.2
2022-10-02T11:07:54.515Z,20.2
2022-10-02T11:13:16.621Z,20.1
2022-10-02T11:18:38.944Z,20.2
2022-10-02T11:24:01.439Z,20.4
2022-10-02T11:29:43.213Z,20.4
2022-10-02T11:35:21.851Z,20.1
2022-10-02T11:40:59.137Z,20.3
2022-10-02T11:46:36.610Z,20.4
2022-10-02T11:52:13.664Z,20.2
2022-10-02T11:57:53.515Z,19.9
2022-10-02T12:03:32.042Z,20
2022-10-02T12:09:09.693Z,20
2022-10-02T12:14:48.240Z,20.1
2022-10-02T12:20:25.554Z,20.3
2022-10-02T12:25:47.598Z,20.3
2022-10-02T12:31:25.471Z,20.7
2022-10-02T12:37:05.217Z,20.1
2022-10-02T12:42:47.253Z,20.3
2022-10-02T12:48:09.412Z,20.6
2022-10-02T12:53:46.755Z,20.3
2022-10-02T12:59:24.113Z,20
2022-10-02T13:05:30.748Z,19.4
2022-10-02T13:11:09.913Z,19.1
2022-10-02T13:16:31.985Z,19.4
2022-10-02T13:22:14.004Z,19.6
2022-10-02T13:27:58.324Z,19.5
2022-10-02T13:33:37.261Z,18.6
2022-10-02T13:39:15.328Z,18.9
2022-10-02T13:44:53.424Z,19.6
2022-10-02T13:50:34.311Z,19.6
2022-10-02T13:56:15.514Z,19.5
2022-10-02T14:01:54.284Z,19.8
2022-10-02T14:07:31.798Z,19.8
2022-10-02T14:13:09.641Z,19.7
2022-10-02T14:18:51.122Z,19.5
2022-10-02T14:24:28.429Z,19.1
2022-10-02T14:30:06.057Z,19.2
2022-10-02T14:35:45.026Z,19.6
2022-10-02T14:41:21.907Z,19.5
2022-10-02T14:47:01.000Z,19.4
2022-10-02T14:52:38.022Z,19.1
2022-10-02T15:20:56.164Z,20.1
2022-10-02T15:26:34.525Z,20.6
2022-10-02T15:32:36.313Z,19.9
2022-10-02T15:38:16.059Z,19.8
2022-10-02T15:43:57.226Z,19.1
2022-10-02T15:49:34.459Z,18.8
2022-10-02T15:55:14.963Z,18.1
2022-10-02T16:00:55.122Z,17.1
2022-10-02T16:06:32.967Z,16.7
2022-10-02T16:12:10.060Z,16.1
2022-10-02T16:17:49.246Z,16
2022-10-02T16:24:44.714Z,15.8
2022-10-02T16:30:07.103Z,15.6
2022-10-02T16:35:29.937Z,15.4
2022-10-02T16:41:08.182Z,15.6
2022-10-02T16:46:47.629Z,15.5
2022-10-02T16:52:11.075Z,15.8
2022-10-02T16:57:48.032Z,15.3
2022-10-02T17:03:57.436Z,15.1
2022-10-02T17:09:20.267Z,14.9
2022-10-02T17:14:57.251Z,14.7
2022-10-02T17:20:36.923Z,14.9
2022-10-02T17:26:14.959Z,14.9
2022-10-02T17:31:57.019Z,14.8
2022-10-02T17:37:39.336Z,14.7
2022-10-02T17:43:17.778Z,14.6
2022-10-02T17:49:00.096Z,14.5
2022-10-02T17:55:11.820Z,14.5
2022-10-02T18:00:54.451Z,14.5
2022-10-02T18:06:16.277Z,14.4
2022-10-02T18:11:55.627Z,14.3
2022-10-02T18:17:24.382Z,14.4
2022-10-02T18:22:30.980Z,14
2022-10-02T18:27:52.605Z,14.1
2022-10-02T18:33:40.922Z,14
2022-10-02T18:39:16.850Z,14
2022-10-02T18:44:54.837Z,13.9
2022-10-02T18:50:20.992Z,13.4
2022-10-02T18:56:02.290Z,12.8
2022-10-02T19:01:25.766Z,12.6
2022-10-02T19:07:04.698Z,12.3
2022-10-02T19:12:42.076Z,12.3
2022-10-02T19:18:23.144Z,12.5
2022-10-02T19:24:01.537Z,12.4
2022-10-02T19:29:23.787Z,12.3
2022-10-02T19:35:01.084Z,11.9
2022-10-02T19:40:29.553Z,11.8
2022-10-02T19:46:13.027Z,11.7
2022-10-02T19:51:50.656Z,11.6
2022-10-02T19:57:18.234Z,11.5
2022-10-02T20:02:57.217Z,11.3
2022-10-02T20:08:23.306Z,11.3
2022-10-02T20:13:48.933Z,11.1
2022-10-02T20:19:26.394Z,10.9
2022-10-02T20:25:03.232Z,11
2022-10-02T20:30:41.389Z,11.1
